Time;durP1;ratioP1;P1;durP2;ratioP2;P2;SDS_P1;SDS_P2;PMS_P1;PMS_P2;Temp;Humidity;BMP_temperature;BMP_pressure;BME280_temperature;BME280_humidity;BME280_pressure;Samples;Min_cycle;Max_cycle;Signal;HPM_P1;HPM_P2
2021/10/03 00:00:48;;;;;;;7.28;5.85;;;21.30;94.30;;;;;;5072147;28;20506;-46
2021/10/03 00:03:19;;;;;;;6.70;4.70;;;21.30;94.30;;;;;;5072818;28;20114;-47
2021/10/03 00:05:47;;;;;;;6.88;4.25;;;21.30;94.30;;;;;;5072277;28;20051;-46
2021/10/03 00:08:15;;;;;;;8.07;4.72;;;21.40;94.20;;;;;;5055569;28;20044;-47
2021/10/03 00:10:43;;;;;;;7.05;4.72;;;21.30;94.20;;;;;;5072007;28;20098;-46
2021/10/03 00:13:11;;;;;;;9.27;4.60;;;21.40;94.20;;;;;;5071985;28;20526;-47
2021/10/03 00:15:39;;;;;;;8.52;4.78;;;21.40;94.20;;;;;;5072148;28;20478;-47
2021/10/03 00:18:08;;;;;;;8.55;5.60;;;21.40;94.20;;;;;;5072029;28;20095;-46
2021/10/03 00:20:37;;;;;;;6.65;4.57;;;21.40;94.10;;;;;;5055587;28;20063;-46
2021/10/03 00:23:05;;;;;;;7.10;5.35;;;21.30;94.10;;;;;;5055174;28;20086;-48
2021/10/03 00:25:33;;;;;;;6.95;4.75;;;21.30;94.10;;;;;;5071809;28;20077;-46
2021/10/03 00:28:01;;;;;;;6.85;4.80;;;21.30;94.20;;;;;;5055510;28;20140;-47
2021/10/03 00:30:29;;;;;;;6.70;4.65;;;21.30;94.20;;;;;;5055034;28;20094;-47
2021/10/03 00:32:57;;;;;;;7.45;4.20;;;21.20;94.20;;;;;;5072032;28;20105;-46
2021/10/03 00:35:24;;;;;;;8.80;5.40;;;21.20;94.20;;;;;;5073116;28;20045;-47
2021/10/03 00:37:52;;;;;;;6.78;5.28;;;21.20;94.30;;;;;;5073100;28;20060;-46
2021/10/03 00:40:20;;;;;;;9.20;5.40;;;21.20;94.30;;;;;;5071854;28;20405;-47
2021/10/03 00:42:47;;;;;;;6.90;4.13;;;21.10;94.40;;;;;;5071606;28;20124;-49
2021/10/03 00:45:16;;;;;;;6.88;4.65;;;21.10;94.50;;;;;;5071757;28;20059;-47
2021/10/03 00:47:44;;;;;;;7.93;4.88;;;21.20;94.60;;;;;;5071646;28;20037;-48
2021/10/03 00:50:13;;;;;;;8.63;5.05;;;21.20;94.50;;;;;;5055372;28;20387;-47
2021/10/03 00:52:44;;;;;;;9.90;5.20;;;21.20;94.50;;;;;;5072926;28;20182;-48
2021/10/03 00:55:13;;;;;;;6.38;4.88;;;21.20;94.50;;;;;;5054999;28;20060;-47
2021/10/03 00:57:45;;;;;;;8.00;4.28;;;21.20;94.50;;;;;;5071854;28;20052;-48
2021/10/03 01:00:15;;;;;;;6.20;4.55;;;21.20;94.50;;;;;;5072857;28;20037;-46
2021/10/03 01:02:43;;;;;;;6.72;4.28;;;21.10;94.50;;;;;;5072072;28;20144;-47
2021/10/03 01:05:11;;;;;;;8.15;5.57;;;21.10;94.50;;;;;;5075604;28;20041;-47
2021/10/03 01:07:39;;;;;;;5.75;4.22;;;21.10;94.50;;;;;;5075263;28;20044;-47
2021/10/03 01:10:10;;;;;;;15.45;5.40;;;21.00;94.60;;;;;;5075089;28;20083;-47
2021/10/03 01:12:39;;;;;;;5.88;4.35;;;21.10;94.60;;;;;;5058121;28;20056;-47
2021/10/03 01:15:08;;;;;;;7.32;4.68;;;21.10;94.60;;;;;;5058376;28;20048;-47
2021/10/03 01:17:36;;;;;;;7.45;4.78;;;21.00;94.40;;;;;;5058501;28;20056;-47
2021/10/03 01:20:06;;;;;;;7.43;5.10;;;21.00;94.40;;;;;;5074889;28;20052;-47
2021/10/03 01:22:36;;;;;;;7.00;5.15;;;21.00;94.40;;;;;;5076034;28;20425;-47
2021/10/03 01:25:06;;;;;;;7.03;4.93;;;21.10;94.40;;;;;;5075121;28;20501;-46
2021/10/03 01:27:36;;;;;;;8.60;4.90;;;21.00;94.50;;;;;;5075030;28;20131;-47
2021/10/03 01:30:07;;;;;;;6.72;4.65;;;21.00;94.50;;;;;;5074682;28;20040;-49
2021/10/03 01:32:37;;;;;;;6.88;4.72;;;21.00;94.50;;;;;;5075012;28;20053;-46
2021/10/03 01:35:06;;;;;;;5.80;4.43;;;21.00;94.50;;;;;;5057857;28;20045;-46
2021/10/03 01:37:33;;;;;;;12.70;4.53;;;21.00;94.50;;;;;;5075784;28;20041;-46
2021/10/03 01:40:04;;;;;;;8.10;5.35;;;21.00;94.50;;;;;;5074266;28;20079;-46
2021/10/03 01:42:32;;;;;;;6.50;4.90;;;21.10;94.60;;;;;;5074677;28;20044;-47
2021/10/03 01:45:01;;;;;;;8.05;4.55;;;21.00;94.60;;;;;;5075021;28;20049;-47
2021/10/03 01:47:28;;;;;;;8.73;5.80;;;21.10;94.80;;;;;;5058157;28;20040;-47
2021/10/03 01:49:56;;;;;;;7.57;4.70;;;21.10;94.80;;;;;;5074318;28;20098;-47
2021/10/03 01:52:23;;;;;;;7.28;4.68;;;21.10;95.00;;;;;;5075342;28;20036;-46
2021/10/03 01:54:51;;;;;;;9.57;5.22;;;21.00;94.70;;;;;;5074444;28;20040;-47
2021/10/03 01:57:18;;;;;;;7.47;5.30;;;21.10;94.70;;;;;;5074606;28;20044;-46
2021/10/03 01:59:46;;;;;;;8.25;5.05;;;21.10;94.60;;;;;;5074236;28;20052;-46
2021/10/03 02:02:13;;;;;;;9.25;5.00;;;21.00;94.50;;;;;;5074232;28;20492;-47
2021/10/03 02:04:41;;;;;;;6.47;3.95;;;21.00;94.50;;;;;;5073468;28;20063;-47
2021/10/03 02:07:09;;;;;;;7.10;5.00;;;21.00;94.60;;;;;;5074097;28;20045;-47
2021/10/03 02:09:37;;;;;;;8.85;4.40;;;21.00;94.60;;;;;;5073990;28;20047;-47
2021/10/03 02:12:04;;;;;;;8.20;4.07;;;21.00;94.70;;;;;;5075009;28;20440;-47
2021/10/03 02:14:34;;;;;;;6.72;5.10;;;21.00;94.80;;;;;;5073120;28;20076;-46
2021/10/03 02:17:05;;;;;;;7.22;5.22;;;21.00;94.80;;;;;;5073877;28;20522;-47
2021/10/03 02:19:37;;;;;;;6.88;4.55;;;21.00;94.80;;;;;;5073666;28;20126;-47
2021/10/03 02:22:06;;;;;;;6.90;4.07;;;21.00;94.90;;;;;;5057027;28;20049;-46
2021/10/03 02:24:35;;;;;;;7.07;4.47;;;21.00;95.00;;;;;;5074105;28;20407;-46
2021/10/03 02:27:03;;;;;;;11.65;5.18;;;21.00;95.10;;;;;;5073673;28;20052;-46
2021/10/03 02:29:31;;;;;;;9.93;4.20;;;21.00;95.00;;;;;;5057205;28;20044;-46
2021/10/03 02:31:58;;;;;;;10.75;5.00;;;21.00;95.10;;;;;;5073561;28;20060;-46
2021/10/03 02:34:26;;;;;;;8.85;5.10;;;20.90;95.00;;;;;;5073448;28;20494;-46
2021/10/03 02:36:54;;;;;;;10.40;4.68;;;20.90;95.00;;;;;;5073622;28;20052;-46
2021/10/03 02:39:22;;;;;;;8.55;5.82;;;20.90;95.00;;;;;;5073409;28;20409;-46
2021/10/03 02:41:49;;;;;;;7.82;4.78;;;20.90;95.00;;;;;;5073502;28;20064;-47
2021/10/03 02:44:17;;;;;;;8.80;4.63;;;20.90;95.00;;;;;;5073327;28;20539;-47
2021/10/03 02:46:45;;;;;;;7.32;5.22;;;20.90;95.10;;;;;;5073468;28;20046;-46
2021/10/03 02:49:12;;;;;;;8.00;5.28;;;20.90;95.20;;;;;;5073180;28;20131;-46
2021/10/03 02:51:40;;;;;;;7.72;4.40;;;20.90;95.30;;;;;;5074376;28;20033;-47
2021/10/03 02:54:08;;;;;;;7.55;5.13;;;20.90;95.30;;;;;;5073064;28;20048;-46
2021/10/03 02:56:35;;;;;;;6.85;4.20;;;20.90;95.30;;;;;;5073448;28;20068;-46
2021/10/03 02:59:03;;;;;;;7.03;4.85;;;20.80;95.30;;;;;;5072883;28;20048;-47
2021/10/03 03:01:31;;;;;;;8.73;4.88;;;20.80;95.50;;;;;;5072831;28;20048;-46
2021/10/03 03:03:58;;;;;;;8.23;4.78;;;20.80;95.40;;;;;;5072950;28;20056;-47
2021/10/03 03:06:26;;;;;;;6.45;4.72;;;20.80;95.50;;;;;;5073177;28;20429;-46
2021/10/03 03:08:53;;;;;;;8.75;5.15;;;20.80;95.50;;;;;;5073097;28;20125;-47
2021/10/03 03:11:21;;;;;;;8.70;5.60;;;20.80;95.50;;;;;;5072571;28;20556;-46
2021/10/03 03:13:48;;;;;;;7.30;5.47;;;20.80;95.60;;;;;;5073996;28;20478;-47
2021/10/03 03:16:16;;;;;;;8.00;5.03;;;20.80;95.70;;;;;;5072716;28;20052;-46
2021/10/03 03:18:44;;;;;;;9.88;6.05;;;20.80;95.80;;;;;;5073942;28;20607;-46
2021/10/03 03:21:12;;;;;;;8.63;4.90;;;20.70;95.80;;;;;;5072878;28;20036;-47
2021/10/03 03:23:40;;;;;;;9.82;5.38;;;20.70;95.80;;;;;;5072927;28;20064;-46
2021/10/03 03:26:08;;;;;;;7.95;4.97;;;20.70;95.90;;;;;;5072602;28;20101;-47
2021/10/03 03:28:35;;;;;;;7.68;5.45;;;20.70;96.00;;;;;;5072572;28;20049;-47
2021/10/03 03:31:03;;;;;;;6.30;4.97;;;20.70;96.20;;;;;;5073435;28;20110;-46
2021/10/03 03:33:31;;;;;;;7.90;5.40;;;20.70;96.30;;;;;;5072534;28;20548;-46
2021/10/03 03:35:58;;;;;;;11.88;5.53;;;20.70;96.20;;;;;;5072536;28;20033;-46
2021/10/03 03:38:26;;;;;;;11.40;5.97;;;20.60;96.30;;;;;;5072513;28;20135;-46
2021/10/03 03:40:53;;;;;;;7.43;4.93;;;20.60;96.30;;;;;;5074002;28;20045;-46
2021/10/03 03:43:21;;;;;;;7.60;4.55;;;20.60;96.40;;;;;;5072250;28;20090;-46
2021/10/03 03:45:48;;;;;;;9.57;5.40;;;20.60;96.40;;;;;;5072291;28;20045;-47
2021/10/03 03:48:16;;;;;;;10.00;5.28;;;20.60;96.50;;;;;;5072376;28;20055;-47
2021/10/03 03:50:43;;;;;;;6.43;4.75;;;20.60;96.50;;;;;;5073381;28;20045;-46
2021/10/03 03:53:11;;;;;;;9.23;5.53;;;20.60;96.50;;;;;;5072258;28;20040;-46
2021/10/03 03:55:38;;;;;;;11.70;5.95;;;20.60;96.60;;;;;;5072265;28;20044;-48
2021/10/03 03:58:06;;;;;;;8.02;4.78;;;20.60;96.70;;;;;;5072534;28;20073;-47
2021/10/03 04:00:33;;;;;;;9.50;5.15;;;20.50;96.70;;;;;;5073248;28;20482;-46
2021/10/03 04:03:01;;;;;;;7.38;4.95;;;20.50;96.80;;;;;;5073371;28;20044;-46
2021/10/03 04:05:29;;;;;;;14.13;5.22;;;20.40;97.00;;;;;;5072227;28;20040;-46
2021/10/03 04:07:56;;;;;;;6.95;5.13;;;20.40;97.20;;;;;;5073528;28;20068;-47
2021/10/03 04:10:24;;;;;;;7.07;5.00;;;20.40;97.30;;;;;;5072094;28;20047;-47
2021/10/03 04:12:51;;;;;;;7.28;5.57;;;20.40;97.40;;;;;;5071850;28;20152;-47
2021/10/03 04:15:19;;;;;;;9.18;5.10;;;20.40;97.40;;;;;;5072106;28;20139;-47
2021/10/03 04:17:46;;;;;;;7.32;5.32;;;20.40;97.40;;;;;;5072038;28;20044;-46
2021/10/03 04:20:14;;;;;;;6.32;4.45;;;20.40;97.40;;;;;;5072002;28;20082;-46
2021/10/03 04:22:42;;;;;;;6.88;4.72;;;20.40;97.40;;;;;;5055390;28;20048;-46
2021/10/03 04:25:10;;;;;;;8.63;5.95;;;20.40;97.30;;;;;;5072073;28;20549;-46
2021/10/03 04:27:37;;;;;;;7.45;5.75;;;20.40;97.40;;;;;;5055020;28;20049;-46
2021/10/03 04:30:06;;;;;;;8.73;5.75;;;20.30;97.40;;;;;;5071872;28;20037;-47
2021/10/03 04:32:35;;;;;;;8.27;5.25;;;20.30;97.30;;;;;;5055310;28;20049;-46
2021/10/03 04:35:03;;;;;;;8.88;5.05;;;20.30;97.40;;;;;;5073098;28;20056;-49
2021/10/03 04:37:31;;;;;;;7.05;4.85;;;20.30;97.50;;;;;;5055075;28;20037;-46
2021/10/03 04:39:58;;;;;;;10.52;5.22;;;20.30;97.50;;;;;;5075648;28;20048;-46
2021/10/03 04:42:26;;;;;;;7.68;5.07;;;20.30;97.40;;;;;;5075740;28;20147;-46
2021/10/03 04:44:54;;;;;;;7.65;5.10;;;20.30;97.70;;;;;;5075640;28;20044;-46
2021/10/03 04:47:22;;;;;;;6.68;4.85;;;20.30;97.70;;;;;;5075593;28;20150;-46
2021/10/03 04:49:53;;;;;;;8.82;5.30;;;20.20;97.60;;;;;;5058989;28;20041;-46
2021/10/03 04:52:22;;;;;;;9.55;5.15;;;20.10;97.70;;;;;;5075486;28;20041;-46
2021/10/03 04:54:49;;;;;;;9.13;5.32;;;20.10;97.90;;;;;;5075416;28;20117;-46
2021/10/03 04:57:17;;;;;;;8.48;5.05;;;20.20;97.80;;;;;;5058909;28;20102;-47
2021/10/03 04:59:45;;;;;;;9.68;5.60;;;20.20;97.60;;;;;;5058545;28;20165;-46
2021/10/03 05:02:13;;;;;;;8.80;4.45;;;20.30;97.60;;;;;;5075266;28;20037;-46
2021/10/03 05:04:40;;;;;;;6.45;4.70;;;20.30;97.60;;;;;;5075087;28;20051;-46
2021/10/03 05:07:08;;;;;;;10.20;5.72;;;20.30;97.60;;;;;;5075172;28;20044;-46
2021/10/03 05:09:35;;;;;;;8.43;4.68;;;20.40;97.50;;;;;;5076207;28;20071;-46
2021/10/03 05:12:03;;;;;;;8.32;5.80;;;20.40;97.50;;;;;;5074259;28;20126;-46
2021/10/03 05:14:31;;;;;;;7.57;4.70;;;20.40;97.40;;;;;;5073884;28;20068;-47
2021/10/03 05:16:58;;;;;;;7.75;4.13;;;20.50;97.30;;;;;;5075276;28;20409;-46
2021/10/03 05:19:26;;;;;;;7.10;4.93;;;20.60;97.20;;;;;;5073782;28;20045;-46
2021/10/03 05:21:53;;;;;;;6.70;4.80;;;20.60;97.40;;;;;;5073652;28;20040;-46
2021/10/03 05:24:21;;;;;;;8.63;5.15;;;20.60;97.20;;;;;;5073491;28;20157;-47
2021/10/03 05:26:49;;;;;;;6.93;4.93;;;20.70;97.10;;;;;;5073844;28;20131;-47
2021/10/03 05:29:16;;;;;;;8.10;4.68;;;20.70;97.20;;;;;;5073889;28;20043;-47
2021/10/03 05:31:44;;;;;;;7.72;4.75;;;20.80;97.00;;;;;;5074973;28;20388;-47
2021/10/03 05:34:12;;;;;;;10.25;5.82;;;20.90;96.90;;;;;;5074748;28;20047;-46
2021/10/03 05:36:39;;;;;;;7.13;4.63;;;21.00;96.80;;;;;;5057091;28;20048;-47
2021/10/03 05:39:07;;;;;;;6.57;4.45;;;21.10;96.80;;;;;;5073160;28;20453;-46
2021/10/03 05:41:35;;;;;;;9.00;4.75;;;21.00;96.80;;;;;;5073655;28;20078;-47
2021/10/03 05:44:04;;;;;;;8.40;5.18;;;21.10;96.90;;;;;;5073660;28;20040;-47
2021/10/03 05:46:32;;;;;;;6.53;4.75;;;21.10;97.10;;;;;;5073393;28;20486;-47
2021/10/03 05:48:59;;;;;;;7.40;5.38;;;21.20;97.00;;;;;;5073428;28;20050;-46
2021/10/03 05:51:27;;;;;;;6.68;4.15;;;21.50;96.90;;;;;;5073290;28;20098;-46
2021/10/03 05:53:55;;;;;;;7.50;5.43;;;21.50;96.60;;;;;;5056508;28;20044;-47
2021/10/03 05:56:22;;;;;;;6.68;4.53;;;21.70;96.50;;;;;;5073373;28;20075;-46
2021/10/03 05:58:50;;;;;;;8.88;4.85;;;21.90;96.30;;;;;;5073395;28;20048;-47
2021/10/03 06:01:17;;;;;;;9.07;5.55;;;22.00;96.30;;;;;;5073268;28;20065;-46
2021/10/03 06:03:45;;;;;;;8.98;5.78;;;22.10;96.00;;;;;;5072941;28;20517;-46
2021/10/03 06:06:13;;;;;;;8.73;5.60;;;22.30;95.90;;;;;;5056104;28;20040;-46
2021/10/03 06:08:41;;;;;;;13.45;5.88;;;22.30;95.70;;;;;;5056583;28;20040;-46
2021/10/03 06:11:08;;;;;;;8.07;5.47;;;22.20;95.80;;;;;;5026908;28;1350814;-47
2021/10/03 06:13:36;;;;;;;6.85;4.65;;;22.10;95.90;;;;;;5074173;28;20044;-47
2021/10/03 06:16:04;;;;;;;8.88;5.10;;;22.00;96.10;;;;;;5075247;28;20394;-48
2021/10/03 06:18:32;;;;;;;9.27;4.97;;;21.90;96.30;;;;;;5073947;28;20045;-46
2021/10/03 06:20:59;;;;;;;8.48;5.75;;;21.80;96.40;;;;;;5057068;28;20068;-46
2021/10/03 06:23:27;;;;;;;12.57;6.05;;;21.80;96.40;;;;;;5073868;28;20461;-46
2021/10/03 06:25:55;;;;;;;8.32;5.45;;;21.70;96.40;;;;;;5073659;28;20037;-46
2021/10/03 06:28:22;;;;;;;7.82;5.55;;;21.70;96.50;;;;;;5074927;28;20397;-46
2021/10/03 06:30:50;;;;;;;7.25;5.35;;;21.70;96.60;;;;;;5073683;28;20520;-47
2021/10/03 06:33:18;;;;;;;9.68;6.57;;;21.80;96.70;;;;;;5073604;28;20040;-46
2021/10/03 06:35:45;;;;;;;7.97;6.15;;;21.80;96.60;;;;;;5073289;28;20045;-46
2021/10/03 06:38:13;;;;;;;8.98;5.22;;;22.00;96.50;;;;;;5074628;28;20379;-47
2021/10/03 06:40:42;;;;;;;11.05;7.47;;;22.30;96.30;;;;;;5073695;28;20048;-47
2021/10/03 06:43:09;;;;;;;7.68;5.30;;;22.60;95.80;;;;;;5040280;28;20044;-47
2021/10/03 06:45:37;;;;;;;9.57;6.15;;;22.80;95.40;;;;;;5073358;28;20061;-47
2021/10/03 06:48:08;;;;;;;8.15;5.05;;;23.00;95.10;;;;;;5073178;28;20041;-47
2021/10/03 06:50:35;;;;;;;6.55;4.93;;;23.00;95.00;;;;;;5039822;28;20048;-47
2021/10/03 06:53:03;;;;;;;6.40;4.13;;;23.00;94.90;;;;;;5073197;28;20044;-48
2021/10/03 06:55:31;;;;;;;9.35;5.55;;;22.90;95.10;;;;;;5056514;28;20074;-47
2021/10/03 06:58:03;;;;;;;7.22;4.95;;;23.00;95.00;;;;;;5073316;28;20047;-47
2021/10/03 07:00:31;;;;;;;6.13;4.93;;;23.10;95.10;;;;;;5056013;28;20041;-47
2021/10/03 07:02:59;;;;;;;6.32;5.28;;;23.20;94.80;;;;;;5056386;28;20040;-47
2021/10/03 07:05:27;;;;;;;5.78;4.30;;;23.20;94.90;;;;;;5073099;28;20045;-46
2021/10/03 07:07:54;;;;;;;8.38;5.05;;;23.50;94.70;;;;;;5074136;28;20057;-47
2021/10/03 07:10:22;;;;;;;5.85;4.25;;;23.80;94.40;;;;;;5073980;28;20064;-47
2021/10/03 07:12:50;;;;;;;12.32;8.50;;;24.00;94.00;;;;;;5072663;28;20490;-47
2021/10/03 07:15:17;;;;;;;6.00;3.97;;;24.30;93.80;;;;;;5056262;28;20506;-48
2021/10/03 07:17:45;;;;;;;6.75;3.75;;;24.20;93.70;;;;;;5055667;28;20044;-47
2021/10/03 07:20:12;;;;;;;6.10;4.13;;;24.00;93.70;;;;;;5073858;28;20044;-47
2021/10/03 07:22:40;;;;;;;7.47;4.55;;;23.80;93.90;;;;;;5073754;28;20052;-47
2021/10/03 07:25:08;;;;;;;9.18;4.93;;;23.80;94.10;;;;;;5072682;28;20487;-48
2021/10/03 07:27:36;;;;;;;8.50;6.30;;;24.10;93.50;;;;;;5055832;28;20052;-46
2021/10/03 07:30:05;;;;;;;28.17;18.20;;;24.20;93.00;;;;;;5072514;28;20421;-47
2021/10/03 07:32:32;;;;;;;18.25;12.63;;;24.60;92.90;;;;;;5056085;28;20041;-47
2021/10/03 07:35:00;;;;;;;46.13;24.05;;;24.60;92.50;;;;;;5072749;28;20048;-47
2021/10/03 07:37:28;;;;;;;38.47;21.83;;;24.70;92.60;;;;;;5055778;28;20049;-47
2021/10/03 07:39:56;;;;;;;16.05;7.97;;;24.30;92.80;;;;;;5072572;28;20033;-47
2021/10/03 07:42:23;;;;;;;45.85;28.17;;;24.60;92.80;;;;;;5072452;28;20037;-47
2021/10/03 07:44:51;;;;;;;14.73;9.25;;;24.30;92.70;;;;;;5072264;28;20043;-47
2021/10/03 07:47:19;;;;;;;12.07;7.50;;;24.40;92.70;;;;;;5056205;28;20498;-47
2021/10/03 07:49:46;;;;;;;11.45;6.28;;;24.60;92.70;;;;;;5072694;28;20041;-47
2021/10/03 07:52:14;;;;;;;88.30;54.55;;;24.80;92.50;;;;;;5073498;28;20041;-46
2021/10/03 07:54:41;;;;;;;18.10;11.07;;;24.80;92.50;;;;;;5072287;28;20135;-47
2021/10/03 07:57:09;;;;;;;18.40;11.43;;;24.70;92.40;;;;;;5055937;28;20044;-47
2021/10/03 07:59:37;;;;;;;10.73;7.15;;;24.90;92.30;;;;;;5072155;28;20098;-48
2021/10/03 08:02:04;;;;;;;8.60;5.57;;;24.80;91.90;;;;;;5072340;28;20109;-46
2021/10/03 08:04:32;;;;;;;9.00;5.65;;;24.70;91.50;;;;;;5072324;28;20051;-47
2021/10/03 08:07:00;;;;;;;5.95;4.18;;;24.90;91.60;;;;;;5072212;28;20048;-47
2021/10/03 08:09:27;;;;;;;8.18;3.83;;;25.30;91.10;;;;;;5073260;28;20051;-47
2021/10/03 08:11:56;;;;;;;6.55;3.35;;;25.60;90.30;;;;;;5071941;28;20135;-47
2021/10/03 08:14:24;;;;;;;4.85;3.53;;;25.70;89.00;;;;;;5058243;28;20052;-47
2021/10/03 08:16:52;;;;;;;5.10;3.45;;;25.60;90.10;;;;;;5076196;28;20040;-47
2021/10/03 08:19:19;;;;;;;8.32;4.43;;;25.40;90.40;;;;;;5076231;28;20053;-47
2021/10/03 08:21:47;;;;;;;5.70;3.78;;;25.40;90.60;;;;;;5076337;28;20045;-47
2021/10/03 08:24:15;;;;;;;4.53;3.42;;;25.40;90.30;;;;;;5076138;28;20045;-47
2021/10/03 08:26:43;;;;;;;6.63;3.08;;;25.30;90.10;;;;;;5075982;28;20512;-47
2021/10/03 08:29:11;;;;;;;5.43;3.03;;;25.40;88.50;;;;;;5075932;28;20390;-49
2021/10/03 08:31:38;;;;;;;7.10;3.78;;;25.70;87.70;;;;;;5077056;28;20052;-47
2021/10/03 08:34:06;;;;;;;6.07;3.45;;;26.20;87.40;;;;;;5042866;28;20045;-47
2021/10/03 08:36:34;;;;;;;7.00;3.65;;;26.50;86.10;;;;;;5075684;28;20063;-47
2021/10/03 08:39:02;;;;;;;5.15;3.55;;;26.80;85.90;;;;;;5075878;28;20072;-47
2021/10/03 08:41:31;;;;;;;5.03;3.28;;;26.90;84.40;;;;;;5059061;28;20394;-47
2021/10/03 08:43:59;;;;;;;5.80;2.75;;;26.70;81.60;;;;;;5075648;28;20445;-47
2021/10/03 08:46:27;;;;;;;3.40;2.50;;;26.80;81.60;;;;;;5058993;28;20045;-47
2021/10/03 08:48:56;;;;;;;5.75;3.47;;;26.10;80.10;;;;;;5059274;28;20044;-47
2021/10/03 08:51:24;;;;;;;6.10;3.25;;;25.80;83.00;;;;;;5075494;28;20444;-47
2021/10/03 08:53:52;;;;;;;5.80;3.83;;;25.90;84.80;;;;;;5075178;28;20066;-47
2021/10/03 08:56:21;;;;;;;4.78;3.53;;;26.00;84.20;;;;;;5075359;28;20041;-47
2021/10/03 08:58:51;;;;;;;8.45;3.92;;;26.10;82.90;;;;;;5042394;28;20043;-47
2021/10/03 09:01:20;;;;;;;7.00;3.03;;;26.30;80.80;;;;;;5075421;28;20110;-47
2021/10/03 09:16:55;;;;;;;5.78;3.17;;;26.50;77.00;;;;;;5132121;27;20412;-46
2021/10/03 09:19:23;;;;;;;5.13;2.60;;;27.20;75.90;;;;;;5079908;28;20074;-46
2021/10/03 09:21:52;;;;;;;4.10;2.70;;;27.50;75.70;;;;;;5113568;28;20071;-46
2021/10/03 09:24:20;;;;;;;4.65;3.20;;;27.40;75.20;;;;;;5113809;28;20040;-46
2021/10/03 09:26:55;;;;;;;4.55;2.92;;;27.80;75.50;;;;;;5113885;28;20031;-46
2021/10/03 09:29:30;;;;;;;4.93;3.10;;;27.70;75.50;;;;;;5113536;28;20093;-46
2021/10/03 09:32:08;;;;;;;3.70;2.73;;;27.70;76.60;;;;;;5096566;28;20070;-47
2021/10/03 09:34:38;;;;;;;4.60;3.13;;;27.80;76.30;;;;;;5131445;28;20044;-46
2021/10/03 09:37:26;;;;;;;4.70;2.75;;;27.20;75.20;;;;;;5096015;28;20519;-47
2021/10/03 09:40:06;;;;;;;4.35;2.72;;;26.70;76.00;;;;;;5113276;28;20096;-45
2021/10/03 09:42:34;;;;;;;6.95;3.40;;;26.70;76.30;;;;;;5131535;28;20035;-47
2021/10/03 09:45:21;;;;;;;4.97;3.08;;;26.80;76.40;;;;;;5112710;28;20044;-46
2021/10/03 09:48:07;;;;;;;4.05;2.38;;;27.10;76.50;;;;;;5131746;28;20036;-46
2021/10/03 09:50:40;;;;;;;4.90;2.75;;;27.40;74.80;;;;;;5113361;28;20047;-46
2021/10/03 09:53:08;;;;;;;5.43;2.90;;;27.30;74.00;;;;;;5112935;28;20044;-46
2021/10/03 09:55:36;;;;;;;3.80;3.08;;;27.20;75.20;;;;;;5147164;27;20035;-48
2021/10/03 09:58:04;;;;;;;6.07;3.50;;;27.20;76.50;;;;;;5113296;28;20068;-46
2021/10/03 10:00:32;;;;;;;4.93;3.25;;;27.10;76.50;;;;;;5095990;28;20396;-46
2021/10/03 10:03:00;;;;;;;4.57;3.45;;;26.90;77.10;;;;;;5147023;27;20039;-46
2021/10/03 10:05:28;;;;;;;4.68;3.25;;;26.70;77.30;;;;;;5120317;28;20464;-46
2021/10/03 10:07:59;;;;;;;4.13;2.83;;;26.40;77.90;;;;;;5129691;27;20047;-46
2021/10/03 10:10:32;;;;;;;4.07;3.08;;;26.40;77.80;;;;;;5129808;28;20098;-47
2021/10/03 10:13:11;;;;;;;6.13;2.67;;;26.60;77.50;;;;;;5112574;28;20044;-46
2021/10/03 10:15:39;;;;;;;4.05;2.92;;;26.90;75.80;;;;;;5111050;28;20055;-47
2021/10/03 10:18:25;;;;;;;4.40;2.72;;;27.40;75.30;;;;;;5115499;28;20069;-46
2021/10/03 10:20:53;;;;;;;10.23;3.33;;;27.60;74.40;;;;;;5117424;28;20051;-46
2021/10/03 10:23:30;;;;;;;4.82;3.45;;;27.50;74.00;;;;;;5115943;28;20039;-45
2021/10/03 10:26:00;;;;;;;4.38;3.60;;;27.20;74.50;;;;;;5115705;28;20051;-46
2021/10/03 10:28:27;;;;;;;5.90;3.25;;;26.80;75.50;;;;;;5116820;28;20140;-46
2021/10/03 10:31:04;;;;;;;5.43;3.00;;;26.60;76.20;;;;;;5115465;28;20120;-46
2021/10/03 10:33:50;;;;;;;5.70;3.25;;;26.50;78.00;;;;;;5115759;28;20043;-46
2021/10/03 10:36:52;;;;;;;4.20;3.05;;;26.20;78.60;;;;;;5115559;28;20035;-45
2021/10/03 10:39:22;;;;;;;5.65;3.20;;;26.10;79.10;;;;;;5115451;28;20048;-46
2021/10/03 10:42:00;;;;;;;5.75;4.05;;;26.20;79.20;;;;;;5098666;28;20374;-45
2021/10/03 10:44:29;;;;;;;5.05;3.13;;;26.20;78.90;;;;;;5115673;28;20043;-46
2021/10/03 10:46:58;;;;;;;5.53;2.72;;;26.50;78.10;;;;;;5098312;28;20523;-46
2021/10/03 10:49:29;;;;;;;4.63;2.92;;;26.90;77.30;;;;;;5115155;28;20035;-48
2021/10/03 10:52:22;;;;;;;5.55;3.50;;;27.30;76.80;;;;;;5115554;28;20044;-46
2021/10/03 10:54:59;;;;;;;6.43;3.22;;;27.60;76.40;;;;;;5115154;28;20070;-46
2021/10/03 10:57:29;;;;;;;5.38;3.88;;;27.70;75.90;;;;;;5115189;28;20054;-46
2021/10/03 11:00:15;;;;;;;6.95;4.10;;;27.60;75.70;;;;;;5116084;27;20047;-45
2021/10/03 11:03:02;;;;;;;;;;;27.30;77.20;;;;;;5098287;28;20050;-46
2021/10/03 11:08:31;;;;;;;6.75;3.40;;;26.70;79.50;;;;;;5103568;27;20489;-46
2021/10/03 11:11:00;;;;;;;6.20;3.28;;;26.40;80.60;;;;;;5098073;28;20046;-46
2021/10/03 11:13:47;;;;;;;6.38;3.53;;;26.60;80.20;;;;;;5114634;28;20043;-46
2021/10/03 11:16:43;;;;;;;4.35;2.72;;;26.50;79.30;;;;;;5114606;28;20047;-45
2021/10/03 11:19:22;;;;;;;6.60;3.17;;;26.30;79.50;;;;;;5114698;28;20453;-46
2021/10/03 11:21:53;;;;;;;4.55;2.97;;;25.90;79.00;;;;;;5114593;28;20382;-46
2021/10/03 11:24:26;;;;;;;5.68;4.20;;;25.60;80.50;;;;;;5097372;28;20040;-46
2021/10/03 11:27:02;;;;;;;5.93;3.92;;;25.40;81.50;;;;;;5096851;28;20050;-46
2021/10/03 11:29:33;;;;;;;6.10;4.03;;;25.40;82.60;;;;;;5114545;28;20389;-47
2021/10/03 11:32:09;;;;;;;5.25;4.63;;;25.20;86.10;;;;;;5097505;28;20043;-47
2021/10/03 11:34:52;;;;;;;6.07;3.75;;;25.10;86.80;;;;;;5114120;28;20036;-47
2021/10/03 11:37:23;;;;;;;6.93;3.72;;;25.10;87.30;;;;;;5115003;28;20397;-48
2021/10/03 11:40:19;;;;;;;5.70;3.40;;;25.20;86.10;;;;;;5097099;28;20040;-46
2021/10/03 11:42:52;;;;;;;5.65;3.85;;;25.30;87.00;;;;;;5108715;28;20146;-46
2021/10/03 11:45:23;;;;;;;6.57;3.55;;;25.50;87.20;;;;;;5114100;28;20058;-49
2021/10/03 11:47:56;;;;;;;6.45;4.25;;;25.70;87.00;;;;;;5113893;28;20043;-46
2021/10/03 11:50:40;;;;;;;8.95;3.42;;;25.70;85.90;;;;;;5115189;27;20507;-46
2021/10/03 11:53:15;;;;;;;5.32;3.88;;;25.60;86.30;;;;;;5096794;28;20546;-47
2021/10/03 11:55:44;;;;;;;7.60;3.80;;;25.60;86.60;;;;;;5096936;28;20073;-47
2021/10/03 11:58:16;;;;;;;7.38;4.65;;;25.80;86.60;;;;;;5114927;28;20097;-46
2021/10/03 12:00:57;;;;;;;5.30;3.70;;;25.90;86.20;;;;;;5114134;28;20050;-45
2021/10/03 12:03:29;;;;;;;5.45;3.70;;;25.90;86.40;;;;;;5113625;28;20376;-46
2021/10/03 12:05:58;;;;;;;4.55;3.10;;;25.90;86.30;;;;;;5080388;28;20139;-46
2021/10/03 12:08:30;;;;;;;7.22;3.45;;;25.90;86.10;;;;;;5096668;28;20048;-50
2021/10/03 12:11:02;;;;;;;5.85;4.18;;;25.80;86.20;;;;;;5113849;28;20040;-46
2021/10/03 12:13:36;;;;;;;8.00;4.50;;;25.80;86.40;;;;;;5113810;28;20043;-46
2021/10/03 12:16:12;;;;;;;7.03;4.30;;;25.50;86.40;;;;;;5114716;28;20044;-46
2021/10/03 12:18:44;;;;;;;6.28;3.50;;;25.10;87.80;;;;;;5096704;28;20135;-47
2021/10/03 12:21:37;;;;;;;7.28;4.18;;;24.80;88.70;;;;;;5114458;28;20059;-46
2021/10/03 12:24:09;;;;;;;7.15;4.47;;;24.60;89.20;;;;;;5113575;28;20501;-47
2021/10/03 12:26:46;;;;;;;9.20;4.97;;;24.60;89.50;;;;;;5114606;28;20051;-46
2021/10/03 12:29:23;;;;;;;5.85;3.88;;;24.50;89.60;;;;;;5096122;28;20044;-46
2021/10/03 12:32:06;;;;;;;5.10;3.65;;;24.60;89.50;;;;;;5113444;28;20055;-46
2021/10/03 12:34:37;;;;;;;6.13;3.67;;;24.80;88.90;;;;;;5112019;28;20067;-50
2021/10/03 12:37:20;;;;;;;7.93;4.43;;;24.80;88.50;;;;;;5112039;28;20046;-49
2021/10/03 12:39:55;;;;;;;7.32;3.55;;;24.90;88.60;;;;;;5112266;28;20050;-46
2021/10/03 12:42:25;;;;;;;5.43;4.25;;;24.90;88.60;;;;;;5110863;28;20397;-49
2021/10/03 12:44:55;;;;;;;4.63;3.28;;;25.00;88.20;;;;;;5094574;28;20144;-46
2021/10/03 12:47:23;;;;;;;5.47;3.88;;;25.00;87.40;;;;;;5094422;28;20133;-47
2021/10/03 12:49:52;;;;;;;4.93;3.28;;;25.10;87.40;;;;;;5110602;28;20040;-46
2021/10/03 12:52:20;;;;;;;7.15;3.40;;;25.10;87.40;;;;;;5110801;28;20492;-46
2021/10/03 12:54:48;;;;;;;6.50;4.10;;;25.20;87.50;;;;;;5110727;28;20112;-45
2021/10/03 12:57:16;;;;;;;5.50;3.45;;;25.10;87.80;;;;;;5111292;28;20043;-46
2021/10/03 12:59:45;;;;;;;9.25;4.00;;;25.00;88.20;;;;;;5110744;28;20043;-47
2021/10/03 13:02:12;;;;;;;5.03;3.47;;;25.10;88.20;;;;;;5110978;28;20051;-47
2021/10/03 13:04:47;;;;;;;6.22;3.78;;;25.00;88.10;;;;;;5111892;28;20331;-50
2021/10/03 13:07:15;;;;;;;4.82;3.70;;;25.00;88.00;;;;;;5111032;28;20483;-47
2021/10/03 13:09:44;;;;;;;5.38;3.85;;;25.00;87.90;;;;;;5112002;28;20055;-47
2021/10/03 13:12:12;;;;;;;5.85;3.47;;;24.90;87.90;;;;;;5093564;28;20051;-51
2021/10/03 13:14:40;;;;;;;7.88;4.10;;;24.90;87.50;;;;;;5093408;28;20040;-46